createdAt,value
2024-04-19T00:01:32.031Z,9.76
2024-04-19T00:03:59.768Z,9.59
2024-04-19T00:06:34.285Z,9.62
2024-04-19T00:09:02.226Z,9.70
2024-04-19T00:11:34.416Z,9.75
2024-04-19T00:14:01.956Z,9.75
2024-04-19T00:16:37.289Z,9.78
2024-04-19T00:19:06.538Z,9.80
2024-04-19T00:21:40.518Z,9.75
2024-04-19T00:24:08.022Z,9.69
2024-04-19T00:26:38.056Z,9.69
2024-04-19T00:29:05.620Z,9.69
2024-04-19T00:31:35.636Z,9.66
2024-04-19T00:34:03.222Z,9.68
2024-04-19T00:36:34.203Z,9.71
2024-04-19T00:39:04.380Z,9.65
2024-04-19T00:41:34.545Z,9.62
2024-04-19T00:44:02.073Z,9.58
2024-04-19T00:46:33.326Z,9.56
2024-04-19T00:49:01.612Z,9.54
2024-04-19T00:51:33.247Z,9.58
2024-04-19T00:54:04.559Z,9.50
2024-04-19T00:56:35.237Z,9.49
2024-04-19T00:59:03.869Z,9.49
2024-04-19T01:01:34.456Z,9.47
2024-04-19T01:04:02.368Z,9.54
2024-04-19T01:06:32.474Z,9.53
2024-04-19T01:08:59.997Z,9.48
2024-04-19T01:11:38.348Z,9.47
2024-04-19T01:14:06.280Z,9.43
2024-04-19T01:16:36.772Z,9.45
2024-04-19T01:19:07.748Z,9.41
2024-04-19T01:21:41.342Z,9.46
2024-04-19T01:24:15.231Z,9.47
2024-04-19T01:26:47.734Z,9.47
2024-04-19T01:29:15.679Z,9.44
2024-04-19T01:31:45.578Z,9.45
2024-04-19T01:34:12.948Z,9.42
2024-04-19T01:36:43.148Z,9.39
2024-04-19T01:39:10.537Z,9.34
2024-04-19T01:41:40.790Z,9.35
2024-04-19T01:44:10.772Z,9.37
2024-04-19T01:46:40.700Z,9.38
2024-04-19T01:49:08.433Z,9.33
2024-04-19T01:51:39.378Z,9.32
2024-04-19T01:54:06.970Z,9.24
2024-04-19T01:56:37.019Z,9.17
2024-04-19T01:59:04.356Z,9.22
2024-04-19T02:01:37.909Z,9.11
2024-04-19T02:04:05.869Z,9.03
2024-04-19T02:06:37.346Z,8.96
2024-04-19T02:09:05.011Z,8.77
2024-04-19T02:11:35.072Z,8.76
2024-04-19T02:14:02.685Z,8.83
2024-04-19T02:16:32.937Z,8.92
2024-04-19T02:19:06.187Z,8.92
2024-04-19T02:21:34.612Z,8.86
2024-04-19T02:24:08.099Z,8.87
2024-04-19T02:26:35.957Z,8.94
2024-04-19T02:29:23.099Z,8.89
2024-04-19T02:31:57.586Z,8.91
2024-04-19T02:34:31.568Z,8.95
2024-04-19T02:36:58.878Z,8.82
2024-04-19T02:39:28.839Z,8.73
2024-04-19T02:41:58.899Z,8.73
2024-04-19T02:44:50.324Z,8.82
2024-04-19T02:47:20.237Z,8.84
2024-04-19T02:49:52.699Z,8.76
2024-04-19T02:52:22.627Z,8.67
2024-04-19T02:54:50.148Z,8.59
2024-04-19T02:57:20.144Z,8.58
2024-04-19T02:59:50.190Z,8.41
2024-04-19T03:02:20.112Z,8.44
2024-04-19T03:04:52.731Z,8.41
2024-04-19T03:07:22.644Z,8.42
2024-04-19T03:09:52.804Z,8.38
2024-04-19T03:12:22.768Z,8.24
2024-04-19T03:14:53.487Z,8.15
2024-04-19T03:17:23.384Z,8.05
2024-04-19T03:19:56.076Z,7.89
2024-04-19T03:22:25.928Z,7.95
2024-04-19T03:24:55.871Z,7.92
2024-04-19T03:27:25.890Z,7.91
2024-04-19T03:29:58.032Z,7.87
2024-04-19T03:32:26.395Z,7.91
2024-04-19T03:34:59.190Z,7.79
2024-04-19T03:37:29.089Z,7.78
2024-04-19T03:40:02.220Z,7.68
2024-04-19T03:42:32.748Z,7.71
2024-04-19T03:45:19.014Z,7.74
2024-04-19T03:47:48.996Z,7.57
2024-04-19T03:50:21.541Z,7.63
2024-04-19T03:52:51.512Z,7.53
2024-04-19T03:55:21.548Z,7.51
2024-04-19T03:57:53.010Z,7.42
2024-04-19T04:00:23.303Z,7.52
2024-04-19T04:02:54.346Z,7.48
2024-04-19T04:05:27.434Z,7.47
2024-04-19T04:07:57.449Z,7.52
2024-04-19T04:10:27.394Z,7.37
2024-04-19T04:12:59.634Z,7.29
2024-04-19T04:15:29.759Z,7.25
2024-04-19T04:18:03.191Z,7.19
2024-04-19T04:20:36.079Z,7.15
2024-04-19T04:23:06.429Z,7.24
2024-04-19T04:25:38.549Z,7.22
2024-04-19T04:28:08.953Z,7.24
2024-04-19T04:30:42.457Z,7.17
2024-04-19T04:33:13.116Z,7.21
2024-04-19T04:35:51.026Z,7.18
2024-04-19T04:38:21.449Z,7.01
2024-04-19T04:40:55.131Z,6.97
2024-04-19T04:43:26.301Z,7.04
2024-04-19T04:45:56.559Z,7.02
2024-04-19T04:48:26.842Z,7.17
2024-04-19T04:51:01.052Z,7.07
2024-04-19T04:53:31.435Z,7.02
2024-04-19T04:56:01.744Z,6.95
2024-04-19T04:58:32.837Z,7.02
2024-04-19T05:01:03.468Z,7.05
2024-04-19T05:03:33.860Z,7.02
2024-04-19T05:06:06.944Z,7.06
2024-04-19T05:08:36.964Z,7.07
2024-04-19T05:11:07.835Z,7.06
2024-04-19T05:13:38.210Z,7.07
2024-04-19T05:16:08.982Z,7.09
2024-04-19T05:18:39.019Z,7.11
2024-04-19T05:21:11.781Z,7.20
2024-04-19T05:23:42.819Z,7.21
2024-04-19T05:26:12.759Z,7.05
2024-04-19T05:28:42.883Z,7.14
2024-04-19T05:31:13.020Z,7.25
2024-04-19T05:33:43.196Z,7.23
2024-04-19T05:36:15.879Z,7.21
2024-04-19T05:38:46.277Z,7.13
2024-04-19T05:41:16.243Z,7.06
2024-04-19T05:43:49.629Z,6.97
2024-04-19T05:46:19.808Z,7.05
2024-04-19T05:48:49.959Z,7.06
2024-04-19T05:51:22.987Z,7.00
2024-04-19T05:53:53.689Z,7.03
2024-04-19T05:56:26.148Z,7.06
2024-04-19T05:58:58.308Z,6.98
2024-04-19T06:01:28.294Z,6.99
2024-04-19T06:03:59.140Z,7.01
2024-04-19T06:06:31.727Z,6.84
2024-04-19T06:09:01.727Z,6.96
2024-04-19T06:11:31.650Z,6.99
2024-04-19T06:14:01.978Z,7.02
2024-04-19T06:16:31.864Z,7.04
2024-04-19T06:19:02.210Z,7.03
2024-04-19T06:21:36.345Z,7.08
2024-04-19T06:24:06.769Z,7.11
2024-04-19T06:26:36.985Z,7.08
2024-04-19T06:29:07.909Z,7.13
2024-04-19T06:31:39.811Z,7.08
2024-04-19T06:34:10.173Z,6.96
2024-04-19T06:36:43.988Z,7.10
2024-04-19T06:39:23.643Z,7.10
2024-04-19T06:41:54.621Z,7.20
2024-04-19T06:44:25.035Z,7.26
2024-04-19T06:46:55.358Z,7.28
2024-04-19T06:49:26.948Z,7.26
2024-04-19T06:52:00.114Z,7.29
2024-04-19T06:54:30.366Z,7.35
2024-04-19T06:57:02.826Z,7.39
2024-04-19T06:59:34.637Z,7.45
2024-04-19T07:02:05.345Z,7.34
2024-04-19T07:04:35.504Z,7.36
2024-04-19T07:07:08.806Z,7.40
2024-04-19T07:09:39.182Z,7.33
2024-04-19T07:12:09.607Z,7.41
2024-04-19T07:14:41.054Z,7.47
2024-04-19T07:17:11.722Z,7.41
2024-04-19T07:19:41.726Z,7.29
2024-04-19T07:22:15.745Z,7.31
2024-04-19T07:24:45.763Z,7.36
2024-04-19T07:27:16.144Z,7.47
2024-04-19T07:29:46.335Z,7.52
2024-04-19T07:32:16.642Z,7.55
2024-04-19T07:34:52.049Z,7.50
2024-04-19T07:37:24.764Z,7.53
2024-04-19T07:39:54.679Z,7.56
2024-04-19T07:42:24.768Z,7.63
2024-04-19T07:44:54.833Z,7.65
2024-04-19T07:47:24.843Z,7.65
2024-04-19T07:49:54.687Z,7.80
2024-04-19T07:52:27.172Z,7.89
2024-04-19T07:54:57.043Z,7.96
2024-04-19T07:57:26.944Z,7.90
2024-04-19T07:59:57.056Z,7.93
2024-04-19T08:02:27.129Z,7.99
2024-04-19T08:04:57.149Z,8.10
2024-04-19T08:07:38.767Z,8.21
2024-04-19T08:10:10.754Z,8.24
2024-04-19T08:12:40.756Z,8.20
2024-04-19T08:15:11.927Z,8.29
2024-04-19T08:17:42.708Z,8.39
2024-04-19T08:20:13.154Z,8.70
2024-04-19T08:22:45.698Z,8.92
2024-04-19T08:25:15.646Z,9.02
2024-04-19T08:27:46.091Z,9.05
2024-04-19T08:30:16.896Z,8.93
2024-04-19T08:32:47.411Z,8.97
2024-04-19T08:35:19.250Z,9.09
2024-04-19T08:37:52.281Z,9.12
2024-04-19T08:40:22.784Z,9.09
2024-04-19T08:42:53.971Z,9.03
2024-04-19T08:45:24.936Z,9.03
2024-04-19T08:47:57.375Z,9.08
2024-04-19T08:50:29.631Z,9.06
2024-04-19T08:53:15.151Z,9.00
2024-04-19T08:55:47.350Z,8.99
2024-04-19T08:58:18.277Z,9.00
2024-04-19T09:00:49.365Z,9.03
2024-04-19T09:03:20.821Z,8.98
2024-04-19T09:05:51.006Z,9.07
2024-04-19T09:08:24.034Z,9.13
2024-04-19T09:10:54.166Z,9.30
2024-04-19T09:13:24.337Z,9.50
2024-04-19T09:15:57.564Z,9.83
2024-04-19T09:18:28.336Z,10.19
2024-04-19T09:21:00.737Z,10.29
2024-04-19T09:23:33.469Z,10.56
2024-04-19T09:26:03.835Z,10.60
2024-04-19T09:28:34.084Z,10.50
2024-04-19T09:31:04.407Z,10.60
2024-04-19T09:33:34.684Z,10.94
2024-04-19T09:36:05.759Z,11.05
2024-04-19T09:38:41.150Z,11.33
2024-04-19T09:41:18.067Z,11.49
2024-04-19T09:43:52.584Z,11.52
2024-04-19T09:46:31.157Z,11.73
2024-04-19T09:49:05.242Z,11.60
2024-04-19T09:51:39.971Z,11.21
2024-04-19T09:54:16.172Z,10.97
2024-04-19T09:56:53.825Z,10.71
2024-04-19T09:59:25.426Z,10.44
2024-04-19T10:01:57.167Z,10.36
2024-04-19T10:04:29.787Z,10.32
2024-04-19T10:07:00.589Z,10.20
2024-04-19T10:09:35.049Z,10.10
2024-04-19T10:12:06.911Z,10.00
2024-04-19T10:14:37.552Z,9.88
2024-04-19T10:17:13.626Z,9.80
2024-04-19T10:19:52.338Z,9.75
2024-04-19T10:22:28.041Z,9.73
2024-04-19T10:25:04.837Z,9.88
2024-04-19T10:27:34.278Z,10.20
2024-04-19T10:30:13.927Z,10.44
2024-04-19T10:32:53.413Z,10.45
2024-04-19T10:35:26.960Z,10.49
2024-04-19T10:37:59.860Z,10.60
2024-04-19T10:40:32.612Z,10.74
2024-04-19T10:43:06.610Z,10.87
2024-04-19T10:45:39.812Z,10.98
2024-04-19T10:48:13.251Z,11.19
2024-04-19T10:50:44.973Z,11.31
2024-04-19T10:53:18.354Z,11.40
2024-04-19T10:55:52.019Z,11.32
2024-04-19T10:58:22.125Z,11.13
2024-04-19T11:00:52.379Z,10.94
2024-04-19T11:03:24.033Z,10.81
2024-04-19T11:05:54.947Z,10.79
2024-04-19T11:08:25.970Z,10.78
2024-04-19T11:11:03.542Z,10.70
2024-04-19T11:13:33.894Z,10.67
2024-04-19T11:16:05.425Z,10.63
2024-04-19T11:18:37.184Z,10.71
2024-04-19T11:21:12.046Z,10.71
2024-04-19T11:23:44.177Z,10.93
2024-04-19T11:26:18.836Z,11.14
2024-04-19T11:28:50.213Z,11.27
2024-04-19T11:31:20.533Z,11.48
2024-04-19T11:33:55.428Z,11.54
2024-04-19T11:36:29.351Z,11.58
2024-04-19T11:39:00.261Z,11.62
2024-04-19T11:41:32.931Z,11.71
2024-04-19T11:44:06.571Z,11.81
2024-04-19T11:46:41.034Z,11.98
2024-04-19T11:49:17.534Z,12.11
2024-04-19T11:51:48.806Z,12.31
2024-04-19T11:54:19.864Z,12.51
2024-04-19T11:56:53.111Z,12.63
2024-04-19T11:59:25.093Z,12.60
2024-04-19T12:01:57.379Z,12.73
2024-04-19T12:04:28.041Z,12.66
2024-04-19T12:06:58.878Z,12.44
2024-04-19T12:09:28.757Z,12.20
2024-04-19T12:15:22.620Z,11.68
2024-04-19T12:17:29.458Z,11.41
2024-04-19T12:20:04.545Z,11.26
2024-04-19T12:22:45.819Z,10.87
2024-04-19T12:25:21.381Z,10.48
2024-04-19T12:27:54.919Z,10.30
2024-04-19T12:30:26.490Z,10.29
2024-04-19T12:32:57.318Z,10.48
2024-04-19T12:35:29.219Z,10.73
2024-04-19T12:38:01.112Z,10.90
2024-04-19T12:40:32.188Z,10.99
2024-04-19T12:43:05.179Z,11.03
2024-04-19T12:45:35.034Z,11.07
2024-04-19T12:48:09.580Z,11.09
2024-04-19T12:50:40.224Z,11.17
2024-04-19T12:53:10.098Z,11.16
2024-04-19T12:55:39.992Z,11.15
2024-04-19T12:58:12.860Z,11.43
2024-04-19T13:00:42.675Z,11.77
2024-04-19T13:03:12.426Z,11.95
2024-04-19T13:05:42.625Z,12.16
2024-04-19T13:08:12.650Z,12.31
2024-04-19T13:10:42.898Z,12.51
2024-04-19T13:13:17.102Z,12.54
2024-04-19T13:15:47.019Z,12.37
2024-04-19T13:18:16.796Z,12.33
2024-04-19T13:20:46.665Z,12.22
2024-04-19T13:23:16.513Z,12.11
2024-04-19T13:25:47.757Z,12.15
2024-04-19T13:28:20.273Z,12.50
2024-04-19T13:30:52.466Z,12.52
2024-04-19T13:33:22.684Z,12.57
2024-04-19T13:35:52.907Z,12.72
2024-04-19T13:38:23.142Z,12.93
2024-04-19T13:40:52.980Z,12.92
2024-04-19T13:43:22.872Z,12.93
2024-04-19T13:45:55.004Z,12.94
2024-04-19T13:48:26.844Z,12.74
2024-04-19T13:50:56.879Z,12.59
2024-04-19T13:53:28.855Z,12.44
2024-04-19T13:55:58.632Z,12.44
2024-04-19T13:58:31.396Z,12.36
2024-04-19T14:01:01.733Z,12.41
2024-04-19T14:03:32.270Z,12.26
2024-04-19T14:06:02.504Z,12.31
2024-04-19T14:08:33.013Z,12.39
2024-04-19T14:11:02.904Z,12.64
2024-04-19T14:13:35.300Z,12.87
2024-04-19T14:16:05.209Z,13.03
2024-04-19T14:18:35.188Z,13.03
2024-04-19T14:21:05.024Z,13.02
2024-04-19T14:23:35.081Z,13.08
2024-04-19T14:26:05.023Z,13.14
2024-04-19T14:28:38.097Z,13.14
2024-04-19T14:31:07.939Z,13.01
2024-04-19T14:33:38.070Z,12.90
2024-04-19T14:36:09.242Z,12.96
2024-04-19T14:38:38.967Z,12.98
2024-04-19T14:41:11.386Z,13.16
2024-04-19T14:43:43.904Z,13.09
2024-04-19T14:46:13.717Z,13.13
2024-04-19T14:48:43.561Z,13.09
2024-04-19T14:51:14.750Z,13.11
2024-04-19T14:53:44.459Z,13.32
2024-04-19T14:56:14.860Z,13.38
2024-04-19T14:58:55.761Z,13.02
2024-04-19T15:01:30.277Z,12.79
2024-04-19T15:04:00.192Z,12.65
2024-04-19T15:06:39.300Z,12.72
2024-04-19T15:09:10.573Z,12.62
2024-04-19T15:11:40.983Z,12.71
2024-04-19T15:14:13.307Z,12.68
2024-04-19T15:16:43.217Z,12.57
2024-04-19T15:19:13.036Z,12.60
2024-04-19T15:21:42.881Z,12.63
2024-04-19T15:24:12.823Z,12.50
2024-04-19T15:26:42.880Z,12.28
2024-04-19T15:29:15.158Z,12.45
2024-04-19T15:31:44.905Z,12.63
2024-04-19T15:34:40.092Z,12.77
2024-04-19T15:37:06.011Z,12.64
2024-04-19T15:39:35.984Z,12.61
2024-04-19T15:42:08.575Z,12.44
2024-04-19T15:44:43.675Z,12.28
2024-04-19T15:47:13.846Z,12.33
2024-04-19T15:49:50.692Z,12.23
2024-04-19T15:53:32.159Z,12.10
2024-04-19T15:56:02.093Z,11.95
2024-04-19T15:58:31.915Z,11.68
2024-04-19T16:01:08.794Z,11.52
2024-04-19T16:03:40.024Z,11.43
2024-04-19T16:06:10.204Z,11.38
2024-04-19T16:08:41.714Z,11.44
2024-04-19T16:11:11.735Z,11.39
2024-04-19T16:13:41.537Z,11.30
2024-04-19T16:16:15.440Z,11.34
2024-04-19T16:18:45.320Z,11.25
2024-04-19T16:21:15.078Z,11.21
2024-04-19T16:23:45.277Z,11.05
2024-04-19T16:26:15.171Z,11.04
2024-04-19T16:28:46.626Z,11.17
2024-04-19T16:31:18.980Z,11.19
2024-04-19T16:33:49.967Z,11.15
2024-04-19T16:36:20.684Z,11.12
2024-04-19T16:38:54.183Z,11.05
2024-04-19T16:41:25.772Z,11.07
2024-04-19T16:43:55.481Z,11.09
2024-04-19T16:46:28.562Z,11.12
2024-04-19T16:48:58.522Z,11.06
2024-04-19T16:51:28.447Z,11.00
2024-04-19T16:53:58.683Z,10.97
2024-04-19T16:56:28.419Z,10.80
2024-04-19T16:58:58.097Z,10.63
2024-04-19T17:01:30.456Z,10.50
2024-04-19T17:04:00.445Z,10.46
2024-04-19T17:06:31.455Z,10.42
2024-04-19T17:09:01.244Z,10.50
2024-04-19T17:11:31.030Z,10.41
2024-04-19T17:14:00.822Z,10.26
2024-04-19T17:16:33.244Z,10.19
2024-04-19T17:19:03.183Z,10.22
2024-04-19T17:21:33.198Z,10.25
2024-04-19T17:24:05.485Z,10.26
2024-04-19T17:26:35.623Z,10.31
2024-04-19T17:29:06.756Z,10.36
2024-04-19T17:31:41.342Z,10.42
2024-04-19T17:34:11.169Z,10.33
2024-04-19T17:36:41.637Z,10.32
2024-04-19T17:39:11.513Z,10.31
2024-04-19T17:41:41.273Z,10.10
2024-04-19T17:44:11.233Z,9.97
2024-04-19T17:46:45.909Z,9.96
2024-04-19T17:49:15.691Z,9.75
2024-04-19T17:51:45.499Z,9.72
2024-04-19T17:54:16.451Z,9.65
2024-04-19T17:56:45.886Z,9.67
2024-04-19T17:59:16.066Z,9.73
2024-04-19T18:01:48.178Z,9.72
2024-04-19T18:04:17.759Z,9.65
2024-04-19T18:06:47.409Z,9.50
2024-04-19T18:09:16.841Z,9.49
2024-04-19T18:11:52.373Z,9.53
2024-04-19T18:14:22.315Z,9.53
2024-04-19T18:16:56.709Z,9.43
2024-04-19T18:19:29.145Z,9.38
2024-04-19T18:21:59.005Z,9.34
2024-04-19T18:24:31.581Z,9.38
2024-04-19T18:27:02.552Z,9.46
2024-04-19T18:29:32.286Z,9.43
2024-04-19T18:32:04.968Z,9.43
2024-04-19T18:34:34.749Z,9.43
2024-04-19T18:37:05.624Z,9.48
2024-04-19T18:39:36.233Z,9.37
2024-04-19T18:42:06.249Z,9.14
2024-04-19T18:44:36.091Z,9.22
2024-04-19T18:47:09.067Z,9.27
2024-04-19T18:49:42.088Z,9.27
2024-04-19T18:52:11.800Z,9.28
2024-04-19T18:54:41.519Z,9.27
2024-04-19T18:57:11.327Z,9.31
2024-04-19T18:59:41.308Z,9.20
2024-04-19T19:02:13.678Z,9.17
2024-04-19T19:04:43.454Z,9.07
2024-04-19T19:07:14.706Z,9.03
2024-04-19T19:09:46.584Z,9.02
2024-04-19T19:12:16.285Z,8.89
2024-04-19T19:14:46.627Z,8.75
2024-04-19T19:17:19.036Z,8.71
2024-04-19T19:19:48.968Z,8.66
2024-04-19T19:22:19.617Z,8.53
2024-04-19T19:24:49.618Z,8.57
2024-04-19T19:27:19.553Z,8.56
2024-04-19T19:29:49.588Z,8.57
2024-04-19T19:32:23.177Z,8.53
2024-04-19T19:34:54.510Z,8.49
2024-04-19T19:37:25.525Z,8.51
2024-04-19T19:40:00.574Z,8.46
2024-04-19T19:42:30.764Z,8.49
2024-04-19T19:45:00.705Z,8.48
2024-04-19T19:47:33.167Z,8.49
2024-04-19T19:50:04.921Z,8.48
2024-04-19T19:52:34.765Z,8.37
2024-04-19T19:55:05.104Z,8.43
2024-04-19T19:57:35.918Z,8.44
2024-04-19T20:00:22.376Z,8.44
2024-04-19T20:03:10.877Z,8.41
2024-04-19T20:05:50.991Z,8.43
2024-04-19T20:08:21.116Z,8.46
2024-04-19T20:10:50.919Z,8.50
2024-04-19T20:13:20.966Z,8.61
2024-04-19T20:15:51.129Z,8.61
2024-04-19T20:18:24.025Z,8.59
2024-04-19T20:20:56.300Z,8.54
2024-04-19T20:23:26.301Z,8.53
2024-04-19T20:25:56.143Z,8.47
2024-04-19T20:28:26.015Z,8.44
2024-04-19T20:30:55.995Z,8.41
2024-04-19T20:33:29.067Z,8.40
2024-04-19T20:35:58.883Z,8.27
2024-04-19T20:38:28.694Z,8.18
2024-04-19T20:40:58.660Z,8.17
2024-04-19T20:43:29.124Z,8.21
2024-04-19T20:46:00.311Z,8.20
2024-04-19T20:48:33.079Z,8.19
2024-04-19T20:51:03.040Z,8.09
2024-04-19T20:53:33.054Z,8.10
2024-04-19T20:56:04.266Z,8.06
2024-04-19T20:58:34.369Z,8.11
2024-04-19T21:01:10.552Z,8.12
2024-04-19T21:03:45.650Z,8.09
2024-04-19T21:06:17.250Z,8.09
2024-04-19T21:08:47.246Z,8.03
2024-04-19T21:11:17.174Z,8.00
2024-04-19T21:13:47.157Z,8.03
2024-04-19T21:16:18.155Z,8.00
2024-04-19T21:18:50.568Z,8.02
2024-04-19T21:21:20.523Z,8.06
2024-04-19T21:23:53.652Z,8.05
2024-04-19T21:26:23.875Z,8.08
2024-04-19T21:28:55.682Z,8.04
2024-04-19T21:31:25.627Z,8.03
2024-04-19T21:33:58.203Z,8.02
2024-04-19T21:36:31.567Z,8.00
2024-04-19T21:39:01.530Z,7.98
2024-04-19T21:41:31.417Z,7.92
2024-04-19T21:44:02.169Z,7.90
2024-04-19T21:46:32.135Z,7.86
2024-04-19T21:49:04.720Z,7.89
2024-04-19T21:51:37.850Z,7.87
2024-04-19T21:54:13.045Z,7.89
2024-04-19T21:56:42.897Z,7.89
2024-04-19T21:59:12.648Z,7.87
2024-04-19T22:01:44.564Z,7.86
2024-04-19T22:04:18.159Z,7.84
2024-04-19T22:06:48.066Z,7.86
2024-04-19T22:09:17.832Z,7.80
2024-04-19T22:11:47.856Z,7.73
2024-04-19T22:14:19.112Z,7.76
2024-04-19T22:16:48.976Z,7.80
2024-04-19T22:19:21.320Z,7.77
2024-04-19T22:21:51.160Z,7.72
2024-04-19T22:24:20.872Z,7.72
2024-04-19T22:26:52.635Z,7.71
2024-04-19T22:29:22.410Z,7.79
2024-04-19T22:31:55.676Z,7.82
2024-04-19T22:34:28.655Z,7.82
2024-04-19T22:36:59.016Z,7.79
2024-04-19T22:39:28.936Z,7.67
2024-04-19T22:41:58.636Z,7.66
2024-04-19T22:44:28.620Z,7.65
2024-04-19T22:46:58.400Z,7.63
2024-04-19T22:49:31.493Z,7.63
2024-04-19T22:52:01.254Z,7.60
2024-04-19T22:54:31.056Z,7.51
2024-04-19T22:57:00.738Z,7.48
2024-04-19T22:59:30.938Z,7.40
2024-04-19T23:02:00.711Z,7.46
2024-04-19T23:04:33.179Z,7.49
2024-04-19T23:07:03.522Z,7.47
2024-04-19T23:09:33.317Z,7.49
2024-04-19T23:12:03.892Z,7.51
2024-04-19T23:14:33.620Z,7.46
2024-04-19T23:17:03.349Z,7.47
2024-04-19T23:19:35.746Z,7.42
2024-04-19T23:22:05.676Z,7.47
2024-04-19T23:24:35.641Z,7.46
2024-04-19T23:27:05.400Z,7.48
2024-04-19T23:29:35.111Z,7.52
2024-04-19T23:32:04.809Z,7.46
2024-04-19T23:34:37.168Z,7.46
2024-04-19T23:37:09.543Z,7.38
2024-04-19T23:39:39.449Z,7.41
2024-04-19T23:42:09.651Z,7.41
2024-04-19T23:44:39.377Z,7.32
2024-04-19T23:47:10.620Z,7.32
2024-04-19T23:49:42.985Z,7.31
2024-04-19T23:52:14.188Z,7.31
2024-04-19T23:54:43.928Z,7.30
2024-04-19T23:57:13.652Z,7.34
2024-04-19T23:59:44.215Z,7.39
